sensor_id;sensor_type;location;lat;lon;timestamp;P1;durP1;ratioP1;P2;durP2;ratioP2
67100;SDS011;54019;61.746;16.106;2023-03-26T00:01:13;0.32;;;0.32;;
67100;SDS011;54019;61.746;16.106;2023-03-26T00:03:41;0.35;;;0.22;;
67100;SDS011;54019;61.746;16.106;2023-03-26T00:06:08;0.73;;;0.40;;
67100;SDS011;54019;61.746;16.106;2023-03-26T00:08:36;0.25;;;0.25;;
67100;SDS011;54019;61.746;16.106;2023-03-26T00:11:05;0.85;;;0.40;;
67100;SDS011;54019;61.746;16.106;2023-03-26T00:13:32;0.25;;;0.25;;
67100;SDS011;54019;61.746;16.106;2023-03-26T00:15:58;0.43;;;0.43;;
67100;SDS011;54019;61.746;16.106;2023-03-26T00:18:24;1.20;;;0.30;;
67100;SDS011;54019;61.746;16.106;2023-03-26T00:20:50;0.70;;;0.45;;
67100;SDS011;54019;61.746;16.106;2023-03-26T00:23:16;0.60;;;0.30;;
67100;SDS011;54019;61.746;16.106;2023-03-26T00:25:42;2.58;;;0.55;;
67100;SDS011;54019;61.746;16.106;2023-03-26T00:28:09;1.10;;;0.30;;
67100;SDS011;54019;61.746;16.106;2023-03-26T00:30:35;0.70;;;0.40;;
67100;SDS011;54019;61.746;16.106;2023-03-26T00:33:01;0.75;;;0.30;;
67100;SDS011;54019;61.746;16.106;2023-03-26T00:35:27;0.47;;;0.30;;
67100;SDS011;54019;61.746;16.106;2023-03-26T00:37:53;0.63;;;0.25;;
67100;SDS011;54019;61.746;16.106;2023-03-26T00:40:18;0.30;;;0.30;;
67100;SDS011;54019;61.746;16.106;2023-03-26T00:42:44;0.28;;;0.28;;
67100;SDS011;54019;61.746;16.106;2023-03-26T00:45:12;1.15;;;0.30;;
67100;SDS011;54019;61.746;16.106;2023-03-26T00:47:37;0.30;;;0.30;;
67100;SDS011;54019;61.746;16.106;2023-03-26T00:50:03;0.45;;;0.30;;
67100;SDS011;54019;61.746;16.106;2023-03-26T00:52:30;0.32;;;0.30;;
67100;SDS011;54019;61.746;16.106;2023-03-26T00:54:56;0.45;;;0.30;;
67100;SDS011;54019;61.746;16.106;2023-03-26T00:57:22;0.30;;;0.30;;
67100;SDS011;54019;61.746;16.106;2023-03-26T00:59:48;2.17;;;0.32;;
67100;SDS011;54019;61.746;16.106;2023-03-26T01:02:16;0.20;;;0.20;;
67100;SDS011;54019;61.746;16.106;2023-03-26T01:04:44;0.30;;;0.30;;
67100;SDS011;54019;61.746;16.106;2023-03-26T01:07:12;0.47;;;0.20;;
67100;SDS011;54019;61.746;16.106;2023-03-26T01:09:40;0.40;;;0.30;;
67100;SDS011;54019;61.746;16.106;2023-03-26T01:12:10;0.90;;;0.32;;
67100;SDS011;54019;61.746;16.106;2023-03-26T01:14:38;0.20;;;0.20;;
67100;SDS011;54019;61.746;16.106;2023-03-26T01:17:04;0.20;;;0.20;;
67100;SDS011;54019;61.746;16.106;2023-03-26T01:19:35;1.40;;;0.30;;
67100;SDS011;54019;61.746;16.106;2023-03-26T01:22:05;0.98;;;0.45;;
67100;SDS011;54019;61.746;16.106;2023-03-26T01:24:34;0.30;;;0.30;;
67100;SDS011;54019;61.746;16.106;2023-03-26T01:27:05;0.40;;;0.32;;
67100;SDS011;54019;61.746;16.106;2023-03-26T01:29:41;1.00;;;0.38;;
67100;SDS011;54019;61.746;16.106;2023-03-26T01:32:13;0.60;;;0.28;;
67100;SDS011;54019;61.746;16.106;2023-03-26T01:34:49;0.10;;;0.10;;
67100;SDS011;54019;61.746;16.106;2023-03-26T01:37:24;0.13;;;0.13;;
67100;SDS011;54019;61.746;16.106;2023-03-26T01:40:00;1.20;;;0.30;;
67100;SDS011;54019;61.746;16.106;2023-03-26T01:42:30;0.88;;;0.50;;
67100;SDS011;54019;61.746;16.106;2023-03-26T01:45:03;0.75;;;0.30;;
67100;SDS011;54019;61.746;16.106;2023-03-26T01:47:34;0.57;;;0.30;;
67100;SDS011;54019;61.746;16.106;2023-03-26T01:50:02;0.20;;;0.20;;
67100;SDS011;54019;61.746;16.106;2023-03-26T01:52:28;0.20;;;0.20;;
67100;SDS011;54019;61.746;16.106;2023-03-26T01:54:54;0.30;;;0.30;;
67100;SDS011;54019;61.746;16.106;2023-03-26T01:57:25;0.32;;;0.30;;
67100;SDS011;54019;61.746;16.106;2023-03-26T02:00:01;0.20;;;0.20;;
67100;SDS011;54019;61.746;16.106;2023-03-26T02:02:44;0.38;;;0.20;;
67100;SDS011;54019;61.746;16.106;2023-03-26T02:05:29;0.88;;;0.20;;
67100;SDS011;54019;61.746;16.106;2023-03-26T02:07:58;0.55;;;0.30;;
67100;SDS011;54019;61.746;16.106;2023-03-26T02:10:33;0.38;;;0.30;;
67100;SDS011;54019;61.746;16.106;2023-03-26T02:13:04;1.23;;;0.20;;
67100;SDS011;54019;61.746;16.106;2023-03-26T02:15:30;0.68;;;0.30;;
67100;SDS011;54019;61.746;16.106;2023-03-26T02:17:56;0.82;;;0.30;;
67100;SDS011;54019;61.746;16.106;2023-03-26T02:20:22;0.95;;;0.30;;
67100;SDS011;54019;61.746;16.106;2023-03-26T02:22:47;0.43;;;0.30;;
67100;SDS011;54019;61.746;16.106;2023-03-26T02:25:14;1.17;;;0.30;;
67100;SDS011;54019;61.746;16.106;2023-03-26T02:27:41;0.57;;;0.22;;
67100;SDS011;54019;61.746;16.106;2023-03-26T02:30:09;0.22;;;0.20;;
67100;SDS011;54019;61.746;16.106;2023-03-26T02:32:37;0.20;;;0.20;;
67100;SDS011;54019;61.746;16.106;2023-03-26T02:35:03;0.73;;;0.40;;
67100;SDS011;54019;61.746;16.106;2023-03-26T02:37:30;0.57;;;0.30;;
67100;SDS011;54019;61.746;16.106;2023-03-26T02:39:56;1.70;;;0.30;;
67100;SDS011;54019;61.746;16.106;2023-03-26T02:42:21;0.28;;;0.28;;
67100;SDS011;54019;61.746;16.106;2023-03-26T02:44:47;0.30;;;0.30;;
67100;SDS011;54019;61.746;16.106;2023-03-26T02:47:14;0.30;;;0.20;;
67100;SDS011;54019;61.746;16.106;2023-03-26T02:49:40;0.30;;;0.30;;
67100;SDS011;54019;61.746;16.106;2023-03-26T02:52:06;2.13;;;0.30;;
67100;SDS011;54019;61.746;16.106;2023-03-26T02:54:32;0.32;;;0.20;;
67100;SDS011;54019;61.746;16.106;2023-03-26T02:56:57;0.20;;;0.20;;
67100;SDS011;54019;61.746;16.106;2023-03-26T02:59:23;0.57;;;0.35;;
67100;SDS011;54019;61.746;16.106;2023-03-26T03:01:49;0.30;;;0.30;;
67100;SDS011;54019;61.746;16.106;2023-03-26T03:04:16;0.22;;;0.22;;
67100;SDS011;54019;61.746;16.106;2023-03-26T03:06:43;1.15;;;0.40;;
67100;SDS011;54019;61.746;16.106;2023-03-26T03:09:09;0.25;;;0.20;;
67100;SDS011;54019;61.746;16.106;2023-03-26T03:11:35;0.25;;;0.25;;
67100;SDS011;54019;61.746;16.106;2023-03-26T03:14:02;2.83;;;0.30;;
67100;SDS011;54019;61.746;16.106;2023-03-26T03:16:28;0.60;;;0.40;;
67100;SDS011;54019;61.746;16.106;2023-03-26T03:18:54;0.40;;;0.30;;
67100;SDS011;54019;61.746;16.106;2023-03-26T03:21:21;0.40;;;0.35;;
67100;SDS011;54019;61.746;16.106;2023-03-26T03:23:48;0.22;;;0.20;;
67100;SDS011;54019;61.746;16.106;2023-03-26T03:26:15;0.60;;;0.30;;
67100;SDS011;54019;61.746;16.106;2023-03-26T03:28:42;0.50;;;0.20;;
67100;SDS011;54019;61.746;16.106;2023-03-26T03:31:08;1.05;;;0.30;;
67100;SDS011;54019;61.746;16.106;2023-03-26T03:33:33;1.00;;;0.30;;
67100;SDS011;54019;61.746;16.106;2023-03-26T03:35:59;0.35;;;0.30;;
67100;SDS011;54019;61.746;16.106;2023-03-26T03:38:26;1.45;;;0.28;;
67100;SDS011;54019;61.746;16.106;2023-03-26T03:40:52;0.75;;;0.38;;
67100;SDS011;54019;61.746;16.106;2023-03-26T03:43:18;0.30;;;0.30;;
67100;SDS011;54019;61.746;16.106;2023-03-26T03:45:44;0.32;;;0.22;;
67100;SDS011;54019;61.746;16.106;2023-03-26T03:48:09;0.20;;;0.20;;
67100;SDS011;54019;61.746;16.106;2023-03-26T03:50:35;0.35;;;0.20;;
67100;SDS011;54019;61.746;16.106;2023-03-26T03:53:01;2.08;;;0.30;;
67100;SDS011;54019;61.746;16.106;2023-03-26T03:55:28;0.20;;;0.20;;
67100;SDS011;54019;61.746;16.106;2023-03-26T03:57:54;0.43;;;0.30;;
67100;SDS011;54019;61.746;16.106;2023-03-26T04:00:20;0.63;;;0.30;;
67100;SDS011;54019;61.746;16.106;2023-03-26T04:02:46;0.20;;;0.20;;
67100;SDS011;54019;61.746;16.106;2023-03-26T04:05:12;0.25;;;0.10;;
67100;SDS011;54019;61.746;16.106;2023-03-26T04:07:37;0.28;;;0.20;;
67100;SDS011;54019;61.746;16.106;2023-03-26T04:10:04;0.40;;;0.25;;
67100;SDS011;54019;61.746;16.106;2023-03-26T04:12:32;1.17;;;0.20;;
67100;SDS011;54019;61.746;16.106;2023-03-26T04:14:58;0.45;;;0.30;;
67100;SDS011;54019;61.746;16.106;2023-03-26T04:17:24;0.25;;;0.20;;
67100;SDS011;54019;61.746;16.106;2023-03-26T04:19:50;1.77;;;0.47;;
67100;SDS011;54019;61.746;16.106;2023-03-26T04:22:16;1.23;;;0.20;;
67100;SDS011;54019;61.746;16.106;2023-03-26T04:24:42;0.32;;;0.10;;
67100;SDS011;54019;61.746;16.106;2023-03-26T04:27:08;0.20;;;0.20;;
67100;SDS011;54019;61.746;16.106;2023-03-26T04:29:39;0.20;;;0.20;;
67100;SDS011;54019;61.746;16.106;2023-03-26T04:32:07;0.40;;;0.20;;
67100;SDS011;54019;61.746;16.106;2023-03-26T04:34:36;0.30;;;0.30;;
67100;SDS011;54019;61.746;16.106;2023-03-26T04:37:02;1.40;;;0.20;;
67100;SDS011;54019;61.746;16.106;2023-03-26T04:39:29;0.20;;;0.20;;
67100;SDS011;54019;61.746;16.106;2023-03-26T04:41:54;0.95;;;0.30;;
67100;SDS011;54019;61.746;16.106;2023-03-26T04:44:20;1.58;;;0.40;;
67100;SDS011;54019;61.746;16.106;2023-03-26T04:46:47;1.58;;;0.20;;
67100;SDS011;54019;61.746;16.106;2023-03-26T04:49:13;1.40;;;0.38;;
67100;SDS011;54019;61.746;16.106;2023-03-26T04:51:39;0.28;;;0.20;;
67100;SDS011;54019;61.746;16.106;2023-03-26T04:54:06;3.00;;;0.25;;
67100;SDS011;54019;61.746;16.106;2023-03-26T04:56:35;0.20;;;0.20;;
67100;SDS011;54019;61.746;16.106;2023-03-26T04:59:07;0.25;;;0.22;;
67100;SDS011;54019;61.746;16.106;2023-03-26T05:01:35;0.40;;;0.20;;
67100;SDS011;54019;61.746;16.106;2023-03-26T05:04:02;1.00;;;0.30;;
67100;SDS011;54019;61.746;16.106;2023-03-26T05:06:28;0.20;;;0.20;;
67100;SDS011;54019;61.746;16.106;2023-03-26T05:08:54;0.60;;;0.40;;
67100;SDS011;54019;61.746;16.106;2023-03-26T05:11:20;0.40;;;0.20;;
67100;SDS011;54019;61.746;16.106;2023-03-26T05:13:46;0.20;;;0.20;;
67100;SDS011;54019;61.746;16.106;2023-03-26T05:16:12;0.50;;;0.30;;
67100;SDS011;54019;61.746;16.106;2023-03-26T05:18:38;0.20;;;0.20;;
67100;SDS011;54019;61.746;16.106;2023-03-26T05:21:05;0.38;;;0.20;;
67100;SDS011;54019;61.746;16.106;2023-03-26T05:23:31;2.05;;;0.20;;
67100;SDS011;54019;61.746;16.106;2023-03-26T05:25:57;1.42;;;0.20;;
67100;SDS011;54019;61.746;16.106;2023-03-26T05:28:22;1.85;;;0.20;;
67100;SDS011;54019;61.746;16.106;2023-03-26T05:30:48;1.20;;;0.30;;
67100;SDS011;54019;61.746;16.106;2023-03-26T05:33:14;3.55;;;0.20;;
67100;SDS011;54019;61.746;16.106;2023-03-26T05:35:40;0.32;;;0.20;;
67100;SDS011;54019;61.746;16.106;2023-03-26T05:38:07;1.85;;;0.30;;
67100;SDS011;54019;61.746;16.106;2023-03-26T05:40:33;0.57;;;0.28;;
67100;SDS011;54019;61.746;16.106;2023-03-26T05:42:59;0.40;;;0.20;;
67100;SDS011;54019;61.746;16.106;2023-03-26T05:45:25;2.42;;;0.30;;
67100;SDS011;54019;61.746;16.106;2023-03-26T05:47:50;2.58;;;0.45;;
67100;SDS011;54019;61.746;16.106;2023-03-26T05:50:16;4.97;;;0.32;;
67100;SDS011;54019;61.746;16.106;2023-03-26T05:52:42;0.28;;;0.20;;
67100;SDS011;54019;61.746;16.106;2023-03-26T05:55:09;0.47;;;0.20;;
67100;SDS011;54019;61.746;16.106;2023-03-26T05:57:35;3.30;;;0.30;;
67100;SDS011;54019;61.746;16.106;2023-03-26T06:00:02;1.67;;;0.30;;
67100;SDS011;54019;61.746;16.106;2023-03-26T06:02:29;1.75;;;0.20;;
67100;SDS011;54019;61.746;16.106;2023-03-26T06:04:55;1.13;;;0.25;;
67100;SDS011;54019;61.746;16.106;2023-03-26T06:07:21;1.13;;;0.20;;
67100;SDS011;54019;61.746;16.106;2023-03-26T06:09:47;2.83;;;0.22;;
67100;SDS011;54019;61.746;16.106;2023-03-26T06:12:14;0.30;;;0.20;;
67100;SDS011;54019;61.746;16.106;2023-03-26T06:14:40;2.10;;;0.43;;
67100;SDS011;54019;61.746;16.106;2023-03-26T06:17:06;3.13;;;0.40;;
67100;SDS011;54019;61.746;16.106;2023-03-26T06:19:32;4.03;;;0.30;;
67100;SDS011;54019;61.746;16.106;2023-03-26T06:21:58;2.45;;;0.30;;
67100;SDS011;54019;61.746;16.106;2023-03-26T06:24:24;2.75;;;0.43;;
67100;SDS011;54019;61.746;16.106;2023-03-26T06:26:49;0.98;;;0.20;;
67100;SDS011;54019;61.746;16.106;2023-03-26T06:29:17;4.30;;;0.50;;
67100;SDS011;54019;61.746;16.106;2023-03-26T06:31:42;4.82;;;0.35;;
67100;SDS011;54019;61.746;16.106;2023-03-26T06:34:08;4.10;;;0.50;;
67100;SDS011;54019;61.746;16.106;2023-03-26T06:36:34;5.93;;;0.30;;
67100;SDS011;54019;61.746;16.106;2023-03-26T06:39:00;2.00;;;0.40;;
67100;SDS011;54019;61.746;16.106;2023-03-26T06:41:26;3.55;;;0.30;;
67100;SDS011;54019;61.746;16.106;2023-03-26T06:43:51;1.55;;;0.25;;
67100;SDS011;54019;61.746;16.106;2023-03-26T06:46:19;1.70;;;0.50;;
67100;SDS011;54019;61.746;16.106;2023-03-26T06:48:44;1.95;;;0.47;;
67100;SDS011;54019;61.746;16.106;2023-03-26T06:51:10;1.38;;;0.50;;
67100;SDS011;54019;61.746;16.106;2023-03-26T06:53:36;2.15;;;0.60;;
67100;SDS011;54019;61.746;16.106;2023-03-26T06:56:02;0.50;;;0.38;;
67100;SDS011;54019;61.746;16.106;2023-03-26T06:58:28;1.27;;;0.47;;
67100;SDS011;54019;61.746;16.106;2023-03-26T07:00:54;0.30;;;0.30;;
67100;SDS011;54019;61.746;16.106;2023-03-26T07:03:22;0.50;;;0.30;;
67100;SDS011;54019;61.746;16.106;2023-03-26T07:05:47;1.35;;;0.30;;
67100;SDS011;54019;61.746;16.106;2023-03-26T07:08:14;0.32;;;0.30;;
67100;SDS011;54019;61.746;16.106;2023-03-26T07:10:40;0.80;;;0.30;;
67100;SDS011;54019;61.746;16.106;2023-03-26T07:13:06;0.28;;;0.28;;
67100;SDS011;54019;61.746;16.106;2023-03-26T07:15:31;0.32;;;0.22;;
67100;SDS011;54019;61.746;16.106;2023-03-26T07:17:57;0.40;;;0.40;;
67100;SDS011;54019;61.746;16.106;2023-03-26T07:20:25;1.38;;;0.38;;
67100;SDS011;54019;61.746;16.106;2023-03-26T07:22:51;0.38;;;0.30;;
67100;SDS011;54019;61.746;16.106;2023-03-26T07:25:17;0.93;;;0.40;;
67100;SDS011;54019;61.746;16.106;2023-03-26T07:27:45;0.50;;;0.30;;
67100;SDS011;54019;61.746;16.106;2023-03-26T07:30:23;0.35;;;0.32;;
67100;SDS011;54019;61.746;16.106;2023-03-26T07:32:54;0.30;;;0.20;;
67100;SDS011;54019;61.746;16.106;2023-03-26T07:35:28;0.32;;;0.32;;
67100;SDS011;54019;61.746;16.106;2023-03-26T07:38:02;0.57;;;0.30;;
67100;SDS011;54019;61.746;16.106;2023-03-26T07:40:45;0.25;;;0.25;;
67100;SDS011;54019;61.746;16.106;2023-03-26T07:43:22;0.22;;;0.20;;
67100;SDS011;54019;61.746;16.106;2023-03-26T07:45:57;0.57;;;0.30;;
67100;SDS011;54019;61.746;16.106;2023-03-26T07:48:24;0.45;;;0.20;;
67100;SDS011;54019;61.746;16.106;2023-03-26T07:50:53;0.55;;;0.20;;
67100;SDS011;54019;61.746;16.106;2023-03-26T07:53:20;0.30;;;0.20;;
67100;SDS011;54019;61.746;16.106;2023-03-26T07:55:49;0.40;;;0.30;;
67100;SDS011;54019;61.746;16.106;2023-03-26T07:58:35;1.77;;;0.30;;
67100;SDS011;54019;61.746;16.106;2023-03-26T08:01:14;0.55;;;0.32;;
67100;SDS011;54019;61.746;16.106;2023-03-26T08:03:49;0.38;;;0.30;;
67100;SDS011;54019;61.746;16.106;2023-03-26T08:06:30;0.35;;;0.20;;
67100;SDS011;54019;61.746;16.106;2023-03-26T08:09:02;0.57;;;0.25;;
67100;SDS011;54019;61.746;16.106;2023-03-26T08:11:33;0.28;;;0.28;;
67100;SDS011;54019;61.746;16.106;2023-03-26T08:14:12;0.30;;;0.30;;
67100;SDS011;54019;61.746;16.106;2023-03-26T08:16:49;0.43;;;0.20;;
67100;SDS011;54019;61.746;16.106;2023-03-26T08:19:24;0.43;;;0.20;;
67100;SDS011;54019;61.746;16.106;2023-03-26T08:21:59;0.80;;;0.30;;
67100;SDS011;54019;61.746;16.106;2023-03-26T08:24:31;0.52;;;0.35;;
67100;SDS011;54019;61.746;16.106;2023-03-26T08:29:34;0.47;;;0.20;;
67100;SDS011;54019;61.746;16.106;2023-03-26T08:32:04;0.20;;;0.20;;
67100;SDS011;54019;61.746;16.106;2023-03-26T08:34:37;0.30;;;0.30;;
67100;SDS011;54019;61.746;16.106;2023-03-26T08:37:04;0.22;;;0.22;;
67100;SDS011;54019;61.746;16.106;2023-03-26T08:39:30;0.20;;;0.20;;
67100;SDS011;54019;61.746;16.106;2023-03-26T08:42:22;0.17;;;0.17;;
67100;SDS011;54019;61.746;16.106;2023-03-26T08:51:16;0.20;;;0.20;;
67100;SDS011;54019;61.746;16.106;2023-03-26T08:57:22;0.30;;;0.30;;
67100;SDS011;54019;61.746;16.106;2023-03-26T09:00:11;0.20;;;0.20;;
67100;SDS011;54019;61.746;16.106;2023-03-26T09:12:18;0.20;;;0.20;;
67100;SDS011;54019;61.746;16.106;2023-03-26T09:18:33;0.63;;;0.20;;
67100;SDS011;54019;61.746;16.106;2023-03-26T09:24:32;0.15;;;0.10;;
67100;SDS011;54019;61.746;16.106;2023-03-26T09:27:32;0.32;;;0.20;;
67100;SDS011;54019;61.746;16.106;2023-03-26T09:36:00;0.20;;;0.20;;
67100;SDS011;54019;61.746;16.106;2023-03-26T09:38:49;0.20;;;0.20;;
67100;SDS011;54019;61.746;16.106;2023-03-26T09:41:20;0.20;;;0.20;;
67100;SDS011;54019;61.746;16.106;2023-03-26T09:50:02;2.20;;;0.30;;
67100;SDS011;54019;61.746;16.106;2023-03-26T09:52:50;0.93;;;0.50;;
67100;SDS011;54019;61.746;16.106;2023-03-26T10:01:19;1.80;;;0.38;;
67100;SDS011;54019;61.746;16.106;2023-03-26T10:03:57;2.30;;;0.30;;
67100;SDS011;54019;61.746;16.106;2023-03-26T10:06:44;2.55;;;0.30;;
67100;SDS011;54019;61.746;16.106;2023-03-26T10:09:20;1.08;;;0.38;;
67100;SDS011;54019;61.746;16.106;2023-03-26T10:14:44;1.88;;;0.32;;
67100;SDS011;54019;61.746;16.106;2023-03-26T10:17:23;3.92;;;0.38;;
67100;SDS011;54019;61.746;16.106;2023-03-26T10:20:06;0.45;;;0.25;;
67100;SDS011;54019;61.746;16.106;2023-03-26T10:22:50;0.38;;;0.35;;
67100;SDS011;54019;61.746;16.106;2023-03-26T10:25:28;3.65;;;0.77;;
67100;SDS011;54019;61.746;16.106;2023-03-26T10:28:08;4.30;;;1.10;;
67100;SDS011;54019;61.746;16.106;2023-03-26T10:31:01;5.40;;;1.95;;
67100;SDS011;54019;61.746;16.106;2023-03-26T10:33:41;2.70;;;1.67;;
67100;SDS011;54019;61.746;16.106;2023-03-26T10:36:25;5.85;;;1.83;;
67100;SDS011;54019;61.746;16.106;2023-03-26T10:39:10;10.80;;;5.30;;
67100;SDS011;54019;61.746;16.106;2023-03-26T10:41:48;11.23;;;5.30;;
67100;SDS011;54019;61.746;16.106;2023-03-26T10:44:25;6.45;;;3.72;;
67100;SDS011;54019;61.746;16.106;2023-03-26T10:50:14;6.70;;;2.47;;
67100;SDS011;54019;61.746;16.106;2023-03-26T10:52:57;5.40;;;2.30;;
67100;SDS011;54019;61.746;16.106;2023-03-26T10:55:29;4.05;;;1.75;;
67100;SDS011;54019;61.746;16.106;2023-03-26T10:57:59;2.40;;;1.60;;
67100;SDS011;54019;61.746;16.106;2023-03-26T11:00:33;4.45;;;1.60;;
67100;SDS011;54019;61.746;16.106;2023-03-26T11:03:10;3.20;;;1.63;;
67100;SDS011;54019;61.746;16.106;2023-03-26T11:05:49;2.88;;;1.00;;
67100;SDS011;54019;61.746;16.106;2023-03-26T11:08:22;3.92;;;0.98;;
67100;SDS011;54019;61.746;16.106;2023-03-26T11:10:58;4.93;;;1.38;;
67100;SDS011;54019;61.746;16.106;2023-03-26T11:13:33;6.38;;;1.30;;
67100;SDS011;54019;61.746;16.106;2023-03-26T11:16:11;3.00;;;0.90;;
67100;SDS011;54019;61.746;16.106;2023-03-26T11:18:43;1.80;;;0.90;;
67100;SDS011;54019;61.746;16.106;2023-03-26T11:21:16;4.93;;;0.75;;
67100;SDS011;54019;61.746;16.106;2023-03-26T11:23:50;2.50;;;0.98;;
67100;SDS011;54019;61.746;16.106;2023-03-26T11:26:26;3.13;;;1.00;;
67100;SDS011;54019;61.746;16.106;2023-03-26T11:29:04;3.38;;;1.15;;
67100;SDS011;54019;61.746;16.106;2023-03-26T11:31:44;3.97;;;0.90;;
67100;SDS011;54019;61.746;16.106;2023-03-26T11:34:24;3.28;;;0.88;;
67100;SDS011;54019;61.746;16.106;2023-03-26T11:36:55;3.88;;;0.98;;
67100;SDS011;54019;61.746;16.106;2023-03-26T11:39:23;1.90;;;0.50;;
67100;SDS011;54019;61.746;16.106;2023-03-26T11:41:54;2.22;;;0.65;;
67100;SDS011;54019;61.746;16.106;2023-03-26T11:44:30;2.70;;;0.95;;
67100;SDS011;54019;61.746;16.106;2023-03-26T11:47:02;3.45;;;0.60;;
67100;SDS011;54019;61.746;16.106;2023-03-26T11:49:30;2.33;;;0.70;;
67100;SDS011;54019;61.746;16.106;2023-03-26T11:51:56;2.25;;;0.52;;
67100;SDS011;54019;61.746;16.106;2023-03-26T11:54:22;1.80;;;0.70;;
67100;SDS011;54019;61.746;16.106;2023-03-26T11:56:49;0.47;;;0.45;;
67100;SDS011;54019;61.746;16.106;2023-03-26T11:59:19;0.65;;;0.57;;
67100;SDS011;54019;61.746;16.106;2023-03-26T12:01:54;3.05;;;0.65;;
67100;SDS011;54019;61.746;16.106;2023-03-26T12:04:24;1.77;;;0.57;;
67100;SDS011;54019;61.746;16.106;2023-03-26T12:06:52;0.90;;;0.50;;
67100;SDS011;54019;61.746;16.106;2023-03-26T12:09:19;1.33;;;0.60;;
67100;SDS011;54019;61.746;16.106;2023-03-26T12:11:45;2.17;;;0.47;;
67100;SDS011;54019;61.746;16.106;2023-03-26T12:14:15;2.15;;;0.57;;
67100;SDS011;54019;61.746;16.106;2023-03-26T12:16:56;0.70;;;0.50;;
67100;SDS011;54019;61.746;16.106;2023-03-26T12:19:23;1.27;;;0.50;;
67100;SDS011;54019;61.746;16.106;2023-03-26T12:21:50;0.60;;;0.50;;
67100;SDS011;54019;61.746;16.106;2023-03-26T12:24:23;1.50;;;0.50;;
67100;SDS011;54019;61.746;16.106;2023-03-26T12:26:55;0.90;;;0.40;;
67100;SDS011;54019;61.746;16.106;2023-03-26T12:29:22;0.47;;;0.35;;
67100;SDS011;54019;61.746;16.106;2023-03-26T12:31:50;2.38;;;0.47;;
67100;SDS011;54019;61.746;16.106;2023-03-26T12:34:20;1.17;;;0.43;;
67100;SDS011;54019;61.746;16.106;2023-03-26T12:36:49;0.77;;;0.50;;
67100;SDS011;54019;61.746;16.106;2023-03-26T12:39:33;0.75;;;0.50;;
67100;SDS011;54019;61.746;16.106;2023-03-26T12:42:01;1.17;;;0.57;;
67100;SDS011;54019;61.746;16.106;2023-03-26T12:44:28;0.63;;;0.40;;
67100;SDS011;54019;61.746;16.106;2023-03-26T12:47:05;0.50;;;0.40;;
67100;SDS011;54019;61.746;16.106;2023-03-26T12:49:35;0.43;;;0.30;;
67100;SDS011;54019;61.746;16.106;2023-03-26T12:52:07;0.40;;;0.40;;
67100;SDS011;54019;61.746;16.106;2023-03-26T12:54:43;0.45;;;0.30;;
67100;SDS011;54019;61.746;16.106;2023-03-26T12:57:17;0.77;;;0.40;;
67100;SDS011;54019;61.746;16.106;2023-03-26T12:59:46;0.55;;;0.40;;
67100;SDS011;54019;61.746;16.106;2023-03-26T13:02:29;0.63;;;0.40;;
67100;SDS011;54019;61.746;16.106;2023-03-26T13:05:12;0.50;;;0.30;;
67100;SDS011;54019;61.746;16.106;2023-03-26T13:07:57;0.63;;;0.30;;
67100;SDS011;54019;61.746;16.106;2023-03-26T13:10:39;0.55;;;0.40;;
67100;SDS011;54019;61.746;16.106;2023-03-26T13:13:25;2.58;;;0.50;;
67100;SDS011;54019;61.746;16.106;2023-03-26T13:16:15;0.88;;;0.50;;
67100;SDS011;54019;61.746;16.106;2023-03-26T13:18:49;1.85;;;0.68;;
67100;SDS011;54019;61.746;16.106;2023-03-26T13:21:24;2.92;;;0.75;;
67100;SDS011;54019;61.746;16.106;2023-03-26T13:23:58;2.92;;;0.60;;
67100;SDS011;54019;61.746;16.106;2023-03-26T13:26:36;4.05;;;0.50;;
67100;SDS011;54019;61.746;16.106;2023-03-26T13:29:16;3.20;;;0.80;;
67100;SDS011;54019;61.746;16.106;2023-03-26T13:31:51;4.40;;;0.60;;
67100;SDS011;54019;61.746;16.106;2023-03-26T13:34:24;2.65;;;0.52;;
67100;SDS011;54019;61.746;16.106;2023-03-26T13:37:17;0.93;;;0.40;;
67100;SDS011;54019;61.746;16.106;2023-03-26T13:40:16;3.65;;;0.80;;
67100;SDS011;54019;61.746;16.106;2023-03-26T13:43:14;3.70;;;0.98;;
67100;SDS011;54019;61.746;16.106;2023-03-26T13:46:11;1.20;;;0.60;;
67100;SDS011;54019;61.746;16.106;2023-03-26T13:49:08;5.60;;;1.10;;
67100;SDS011;54019;61.746;16.106;2023-03-26T13:51:57;4.35;;;0.90;;
67100;SDS011;54019;61.746;16.106;2023-03-26T13:54:48;8.43;;;0.85;;
67100;SDS011;54019;61.746;16.106;2023-03-26T13:57:40;4.40;;;0.90;;
67100;SDS011;54019;61.746;16.106;2023-03-26T14:00:36;4.60;;;0.70;;
67100;SDS011;54019;61.746;16.106;2023-03-26T14:03:34;8.95;;;0.73;;
67100;SDS011;54019;61.746;16.106;2023-03-26T14:06:31;5.47;;;0.55;;
67100;SDS011;54019;61.746;16.106;2023-03-26T14:09:26;5.82;;;0.60;;
67100;SDS011;54019;61.746;16.106;2023-03-26T14:12:19;9.40;;;0.75;;
67100;SDS011;54019;61.746;16.106;2023-03-26T14:15:16;9.18;;;1.42;;
67100;SDS011;54019;61.746;16.106;2023-03-26T14:18:11;17.63;;;1.92;;
67100;SDS011;54019;61.746;16.106;2023-03-26T14:21:12;8.02;;;3.20;;
67100;SDS011;54019;61.746;16.106;2023-03-26T14:24:23;13.38;;;4.20;;
67100;SDS011;54019;61.746;16.106;2023-03-26T14:27:32;20.80;;;6.90;;
67100;SDS011;54019;61.746;16.106;2023-03-26T14:30:41;18.23;;;8.90;;
67100;SDS011;54019;61.746;16.106;2023-03-26T14:33:44;22.42;;;12.20;;
67100;SDS011;54019;61.746;16.106;2023-03-26T14:36:47;15.75;;;12.15;;
67100;SDS011;54019;61.746;16.106;2023-03-26T14:39:53;19.77;;;12.27;;
67100;SDS011;54019;61.746;16.106;2023-03-26T14:43:15;19.00;;;12.45;;
67100;SDS011;54019;61.746;16.106;2023-03-26T14:46:25;14.85;;;11.15;;
67100;SDS011;54019;61.746;16.106;2023-03-26T14:49:24;17.75;;;12.60;;
67100;SDS011;54019;61.746;16.106;2023-03-26T14:52:23;18.55;;;11.70;;
67100;SDS011;54019;61.746;16.106;2023-03-26T14:55:26;15.95;;;11.07;;
67100;SDS011;54019;61.746;16.106;2023-03-26T14:58:59;15.18;;;11.00;;
67100;SDS011;54019;61.746;16.106;2023-03-26T15:05:50;12.27;;;9.02;;
67100;SDS011;54019;61.746;16.106;2023-03-26T15:09:12;14.35;;;9.05;;
67100;SDS011;54019;61.746;16.106;2023-03-26T15:12:31;10.52;;;8.60;;
67100;SDS011;54019;61.746;16.106;2023-03-26T15:15:39;10.90;;;8.43;;
67100;SDS011;54019;61.746;16.106;2023-03-26T15:37:06;15.05;;;6.75;;
67100;SDS011;54019;61.746;16.106;2023-03-26T15:39:57;11.07;;;6.22;;
67100;SDS011;54019;61.746;16.106;2023-03-26T15:42:36;13.20;;;5.90;;
67100;SDS011;54019;61.746;16.106;2023-03-26T15:45:12;11.20;;;5.60;;
67100;SDS011;54019;61.746;16.106;2023-03-26T15:47:48;15.27;;;5.45;;
67100;SDS011;54019;61.746;16.106;2023-03-26T15:50:23;9.68;;;5.60;;
67100;SDS011;54019;61.746;16.106;2023-03-26T15:52:58;13.50;;;5.47;;
67100;SDS011;54019;61.746;16.106;2023-03-26T15:55:37;13.27;;;5.40;;
67100;SDS011;54019;61.746;16.106;2023-03-26T15:58:08;7.53;;;5.03;;
67100;SDS011;54019;61.746;16.106;2023-03-26T16:00:42;9.73;;;5.07;;
67100;SDS011;54019;61.746;16.106;2023-03-26T16:03:19;8.90;;;4.75;;
67100;SDS011;54019;61.746;16.106;2023-03-26T16:05:59;7.05;;;5.32;;
67100;SDS011;54019;61.746;16.106;2023-03-26T16:08:52;7.07;;;4.55;;
67100;SDS011;54019;61.746;16.106;2023-03-26T16:14:09;7.45;;;4.60;;
67100;SDS011;54019;61.746;16.106;2023-03-26T16:16:54;8.20;;;4.22;;
67100;SDS011;54019;61.746;16.106;2023-03-26T16:22:34;8.90;;;3.95;;
67100;SDS011;54019;61.746;16.106;2023-03-26T16:28:07;5.88;;;3.92;;
67100;SDS011;54019;61.746;16.106;2023-03-26T16:30:45;5.18;;;3.33;;
67100;SDS011;54019;61.746;16.106;2023-03-26T16:33:55;7.60;;;3.40;;
67100;SDS011;54019;61.746;16.106;2023-03-26T16:36:30;6.20;;;3.55;;